createdAt,value
2023-03-18T00:01:01.802Z,27.40
2023-03-18T00:03:33.044Z,31.00
2023-03-18T00:06:12.128Z,30.50
2023-03-18T00:08:41.279Z,26.70
2023-03-18T00:11:11.531Z,22.80
2023-03-18T00:13:41.774Z,22.60
2023-03-18T00:16:11.724Z,25.70
2023-03-18T00:18:42.595Z,25.40
2023-03-18T00:21:12.437Z,23.90
2023-03-18T00:23:42.889Z,26.10
2023-03-18T00:26:12.148Z,30.10
2023-03-18T00:28:42.018Z,31.10
2023-03-18T00:31:11.723Z,31.60
2023-03-18T00:33:41.387Z,29.20
2023-03-18T00:36:15.778Z,30.60
2023-03-18T00:38:51.255Z,30.30
2023-03-18T00:41:22.334Z,28.70
2023-03-18T00:43:54.328Z,21.00
2023-03-18T00:46:28.776Z,19.10
2023-03-18T00:49:00.641Z,20.50
2023-03-18T00:51:32.549Z,23.60
2023-03-18T00:54:02.789Z,24.70
2023-03-18T00:56:32.208Z,22.40
2023-03-18T00:59:01.530Z,21.40
2023-03-18T01:01:31.563Z,25.70
2023-03-18T01:04:02.338Z,24.70
2023-03-18T01:06:34.265Z,19.80
2023-03-18T01:09:03.157Z,23.10
2023-03-18T01:11:32.314Z,23.30
2023-03-18T01:14:01.237Z,24.40
2023-03-18T01:16:30.837Z,24.30
2023-03-18T01:19:00.166Z,25.40
2023-03-18T01:21:28.977Z,25.30
2023-03-18T01:24:00.903Z,24.20
2023-03-18T01:26:30.933Z,27.20
2023-03-18T01:29:01.623Z,25.40
2023-03-18T01:31:31.698Z,24.20
2023-03-18T01:34:05.058Z,23.90
2023-03-18T01:36:42.900Z,24.30
2023-03-18T01:39:12.641Z,25.10
2023-03-18T01:41:44.949Z,25.00
2023-03-18T01:44:19.395Z,24.80
2023-03-18T01:46:51.172Z,26.60
2023-03-18T01:49:36.719Z,26.70
2023-03-18T01:52:13.078Z,25.60
2023-03-18T01:54:45.684Z,22.90
2023-03-18T01:57:14.579Z,21.10
2023-03-18T01:59:44.351Z,20.90
2023-03-18T02:02:15.277Z,21.40
2023-03-18T02:04:53.961Z,21.40
2023-03-18T02:07:28.625Z,27.40
2023-03-18T02:09:59.159Z,27.20
2023-03-18T02:12:30.677Z,31.00
2023-03-18T02:15:02.276Z,29.70
2023-03-18T02:17:37.383Z,29.60
2023-03-18T02:20:14.014Z,32.10
2023-03-18T02:23:00.670Z,32.70
2023-03-18T02:25:54.083Z,31.50
2023-03-18T02:28:24.973Z,25.30
2023-03-18T02:30:56.333Z,22.60
2023-03-18T02:33:28.770Z,23.10
2023-03-18T02:36:07.989Z,24.40
2023-03-18T02:38:44.248Z,23.50
2023-03-18T02:41:18.505Z,26.20
2023-03-18T02:43:47.446Z,22.40
2023-03-18T02:46:32.002Z,29.00
2023-03-18T02:49:02.061Z,35.30
2023-03-18T02:51:31.219Z,37.00
2023-03-18T02:54:11.072Z,38.50
2023-03-18T02:56:43.576Z,34.20
2023-03-18T02:59:14.565Z,32.50
2023-03-18T03:01:44.942Z,24.70
2023-03-18T03:04:14.062Z,23.30
2023-03-18T03:06:46.126Z,24.80
2023-03-18T03:09:16.384Z,26.00
2023-03-18T03:11:48.296Z,23.10
2023-03-18T03:14:21.822Z,24.90
2023-03-18T03:16:53.235Z,28.70
2023-03-18T03:19:24.025Z,33.50
2023-03-18T03:21:53.130Z,24.80
2023-03-18T03:24:22.536Z,21.60
2023-03-18T03:26:53.408Z,22.20
2023-03-18T03:29:22.126Z,21.20
2023-03-18T03:31:51.303Z,23.90
2023-03-18T03:34:20.344Z,19.20
2023-03-18T03:36:49.206Z,19.20
2023-03-18T03:39:17.804Z,20.40
2023-03-18T03:41:47.265Z,21.50
2023-03-18T03:44:17.812Z,27.00
2023-03-18T03:46:51.218Z,26.20
2023-03-18T03:49:19.818Z,24.80
2023-03-18T03:51:48.439Z,22.70
2023-03-18T03:54:17.015Z,24.70
2023-03-18T03:56:50.028Z,27.30
2023-03-18T03:59:19.075Z,25.90
2023-03-18T04:02:18.604Z,24.90
2023-03-18T04:04:48.665Z,24.50
2023-03-18T04:07:25.137Z,24.80
2023-03-18T04:09:56.103Z,26.00
2023-03-18T04:12:24.972Z,27.00
2023-03-18T04:14:59.790Z,25.40
2023-03-18T04:17:28.366Z,22.50
2023-03-18T04:19:57.909Z,16.00
2023-03-18T04:22:32.158Z,14.80
2023-03-18T04:25:02.263Z,17.40
2023-03-18T04:27:32.468Z,17.40
2023-03-18T04:30:02.525Z,18.70
2023-03-18T04:32:38.344Z,18.20
2023-03-18T04:35:07.692Z,21.30
2023-03-18T04:37:37.691Z,20.80
2023-03-18T04:40:07.240Z,18.80
2023-03-18T04:42:37.541Z,18.90
2023-03-18T04:45:07.494Z,23.70
2023-03-18T04:47:39.564Z,26.70
2023-03-18T04:50:12.388Z,30.20
2023-03-18T04:52:42.116Z,30.70
2023-03-18T04:55:12.459Z,28.00
2023-03-18T04:57:42.942Z,28.60
2023-03-18T05:00:17.536Z,30.00
2023-03-18T05:02:47.101Z,26.30
2023-03-18T05:05:16.063Z,24.00
2023-03-18T05:07:48.181Z,22.80
2023-03-18T05:10:17.487Z,22.80
2023-03-18T05:12:50.659Z,20.40
2023-03-18T05:15:22.960Z,17.80
2023-03-18T05:17:56.198Z,16.80
2023-03-18T05:20:29.037Z,15.40
2023-03-18T05:22:58.473Z,13.80
2023-03-18T05:25:59.647Z,19.40
2023-03-18T05:28:29.225Z,18.50
2023-03-18T05:31:27.386Z,18.30
2023-03-18T05:33:57.319Z,22.00
2023-03-18T05:36:29.857Z,23.10
2023-03-18T05:39:07.639Z,21.70
2023-03-18T05:41:37.576Z,17.40
2023-03-18T05:44:10.452Z,23.90
2023-03-18T05:46:42.101Z,22.90
2023-03-18T05:49:14.913Z,24.90
2023-03-18T05:52:01.755Z,26.80
2023-03-18T05:54:43.680Z,22.50
2023-03-18T05:57:13.907Z,25.10
2023-03-18T05:59:44.128Z,25.80
2023-03-18T06:02:16.479Z,27.30
2023-03-18T06:04:48.432Z,21.40
2023-03-18T06:07:17.151Z,21.30
2023-03-18T06:09:46.272Z,22.70
2023-03-18T06:12:15.235Z,24.50
2023-03-18T06:14:44.301Z,19.80
2023-03-18T06:17:14.335Z,18.70
2023-03-18T06:19:46.015Z,20.10
2023-03-18T06:22:15.573Z,19.30
2023-03-18T06:24:46.515Z,18.90
2023-03-18T06:27:17.272Z,21.30
2023-03-18T06:29:50.553Z,19.60
2023-03-18T06:32:19.642Z,19.70
2023-03-18T06:34:50.854Z,15.60
2023-03-18T06:37:20.228Z,16.40
2023-03-18T06:39:50.304Z,16.80
2023-03-18T06:42:20.069Z,13.10
2023-03-18T06:45:18.474Z,15.50
2023-03-18T06:48:01.120Z,12.20
2023-03-18T06:50:32.143Z,13.80
2023-03-18T06:53:01.830Z,14.90
2023-03-18T06:55:33.590Z,14.60
2023-03-18T06:58:05.800Z,15.10
2023-03-18T07:00:47.943Z,12.20
2023-03-18T07:03:23.438Z,18.90
2023-03-18T07:05:53.013Z,22.90
2023-03-18T07:08:24.222Z,22.90
2023-03-18T07:10:54.758Z,20.90
2023-03-18T07:13:27.573Z,20.00
2023-03-18T07:15:59.190Z,14.80
2023-03-18T07:18:28.281Z,19.00
2023-03-18T07:21:04.779Z,18.20
2023-03-18T07:23:34.600Z,18.60
2023-03-18T07:26:03.612Z,18.20
2023-03-18T07:28:33.231Z,18.20
2023-03-18T07:31:02.301Z,19.20
2023-03-18T07:33:36.033Z,18.20
2023-03-18T07:36:05.817Z,15.30
2023-03-18T07:38:35.281Z,15.60
2023-03-18T07:41:04.008Z,11.60
2023-03-18T07:43:32.683Z,14.90
2023-03-18T07:46:07.078Z,13.40
2023-03-18T07:48:37.497Z,10.60
2023-03-18T07:51:06.123Z,9.60
2023-03-18T07:53:36.572Z,15.80
2023-03-18T07:56:05.611Z,17.90
2023-03-18T07:58:39.026Z,18.10
2023-03-18T08:01:08.018Z,20.10
2023-03-18T08:03:37.419Z,22.20
2023-03-18T08:06:06.464Z,20.40
2023-03-18T08:08:35.787Z,19.70
2023-03-18T08:11:08.734Z,21.30
2023-03-18T08:13:39.065Z,14.20
2023-03-18T08:16:07.886Z,16.90
2023-03-18T08:18:38.318Z,19.80
2023-03-18T08:21:08.123Z,14.10
2023-03-18T08:23:37.345Z,16.40
2023-03-18T08:26:07.929Z,15.70
2023-03-18T08:28:38.779Z,12.70
2023-03-18T08:31:09.909Z,15.70
2023-03-18T08:33:39.114Z,16.50
2023-03-18T08:36:08.766Z,25.60
2023-03-18T08:38:37.778Z,32.40
2023-03-18T08:41:06.876Z,21.40
2023-03-18T08:43:37.969Z,25.20
2023-03-18T08:46:09.257Z,28.90
2023-03-18T08:48:37.699Z,26.00
2023-03-18T08:51:09.550Z,20.70
2023-03-18T08:53:40.101Z,8.20
2023-03-18T08:56:15.091Z,9.20
2023-03-18T08:58:48.548Z,7.90
2023-03-18T09:01:17.929Z,9.90
2023-03-18T09:03:47.294Z,7.60
2023-03-18T09:06:16.099Z,8.00
2023-03-18T09:08:45.064Z,13.30
2023-03-18T09:11:31.770Z,17.90
2023-03-18T09:14:21.316Z,15.40
2023-03-18T09:16:56.462Z,12.80
2023-03-18T09:19:26.500Z,9.60
2023-03-18T09:21:56.398Z,8.10
2023-03-18T09:24:28.140Z,12.60
2023-03-18T09:27:01.029Z,8.00
2023-03-18T09:30:01.412Z,7.10
2023-03-18T09:32:34.018Z,6.50
2023-03-18T09:35:03.944Z,7.40
2023-03-18T09:37:33.115Z,9.30
2023-03-18T09:40:02.075Z,10.00
2023-03-18T09:43:00.378Z,15.50
2023-03-18T09:45:41.253Z,8.00
2023-03-18T09:48:39.305Z,7.60
2023-03-18T09:51:19.313Z,8.30
2023-03-18T09:54:21.351Z,16.30
2023-03-18T09:56:51.218Z,8.80
2023-03-18T09:59:25.648Z,12.60
2023-03-18T10:01:54.997Z,11.60
2023-03-18T10:04:44.584Z,13.70
2023-03-18T10:07:18.008Z,10.10
2023-03-18T10:09:49.006Z,9.30
2023-03-18T10:12:24.413Z,10.50
2023-03-18T10:15:12.511Z,10.10
2023-03-18T10:17:54.684Z,9.30
2023-03-18T10:21:14.693Z,9.70
2023-03-18T10:24:13.270Z,10.50
2023-03-18T10:26:49.227Z,11.90
2023-03-18T10:29:32.198Z,11.00
2023-03-18T10:32:48.759Z,14.70
2023-03-18T10:35:35.247Z,11.50
2023-03-18T10:38:08.457Z,10.10
2023-03-18T10:40:38.883Z,9.50
2023-03-18T10:43:28.496Z,17.00
2023-03-18T10:46:04.436Z,15.40
2023-03-18T10:48:46.957Z,19.40
2023-03-18T10:51:34.905Z,16.40
2023-03-18T10:54:13.799Z,15.60
2023-03-18T10:56:43.931Z,13.70
2023-03-18T10:59:15.554Z,17.90
2023-03-18T11:02:14.482Z,9.40
2023-03-18T11:04:54.642Z,12.40
2023-03-18T11:07:26.217Z,19.40
2023-03-18T11:09:55.366Z,10.70
2023-03-18T11:12:26.181Z,14.40
2023-03-18T11:14:56.535Z,12.50
2023-03-18T11:17:31.748Z,11.90
2023-03-18T11:20:07.755Z,12.30
2023-03-18T11:22:37.303Z,17.40
2023-03-18T11:25:14.067Z,16.50
2023-03-18T11:27:49.231Z,15.00
2023-03-18T11:30:33.500Z,15.30
2023-03-18T11:33:13.846Z,13.20
2023-03-18T11:35:50.760Z,13.70
2023-03-18T11:38:23.327Z,14.40
2023-03-18T11:40:52.221Z,9.70
2023-03-18T11:43:22.958Z,15.90
2023-03-18T11:46:08.427Z,13.70
2023-03-18T11:48:40.019Z,9.50
2023-03-18T11:51:47.537Z,8.30
2023-03-18T11:54:43.498Z,7.70
2023-03-18T11:57:32.482Z,11.10
2023-03-18T12:00:25.549Z,12.60
2023-03-18T12:03:25.462Z,11.20
2023-03-18T12:06:17.069Z,14.60
2023-03-18T12:09:01.030Z,8.50
2023-03-18T12:11:57.692Z,10.30
2023-03-18T12:14:46.370Z,13.40
2023-03-18T12:17:33.112Z,9.50
2023-03-18T12:20:15.727Z,9.80
2023-03-18T12:23:11.351Z,10.70
2023-03-18T12:25:51.020Z,9.30
2023-03-18T12:28:38.255Z,9.10
2023-03-18T12:31:11.416Z,9.20
2023-03-18T12:33:56.789Z,11.80
2023-03-18T12:37:06.431Z,12.50
2023-03-18T12:40:08.099Z,11.50
2023-03-18T12:43:32.142Z,9.10
2023-03-18T12:46:10.573Z,7.10
2023-03-18T12:48:53.232Z,7.30
2023-03-18T12:51:25.898Z,9.00
2023-03-18T12:53:57.037Z,7.70
2023-03-18T12:56:27.871Z,8.80
2023-03-18T12:59:33.686Z,6.00
2023-03-18T13:02:41.523Z,10.40
2023-03-18T13:05:24.885Z,8.10
2023-03-18T13:08:24.903Z,8.40
2023-03-18T13:11:15.866Z,8.20
2023-03-18T13:13:48.759Z,7.90
2023-03-18T13:16:18.005Z,10.00
2023-03-18T13:18:52.567Z,9.80
2023-03-18T13:21:26.634Z,8.20
2023-03-18T13:24:30.304Z,13.00
2023-03-18T13:27:27.034Z,8.00
2023-03-18T13:30:22.837Z,18.30
2023-03-18T13:32:54.529Z,10.80
2023-03-18T13:35:35.281Z,9.90
2023-03-18T13:38:33.178Z,12.20
2023-03-18T13:41:01.926Z,9.30
2023-03-18T13:43:32.385Z,10.00
2023-03-18T13:46:01.207Z,11.60
2023-03-18T13:48:34.371Z,7.80
2023-03-18T13:51:25.275Z,7.90
2023-03-18T13:53:55.132Z,7.10
2023-03-18T13:56:35.126Z,7.60
2023-03-18T13:59:06.767Z,10.70
2023-03-18T14:01:51.071Z,8.10
2023-03-18T14:04:20.828Z,8.10
2023-03-18T14:06:57.549Z,7.80
2023-03-18T14:09:27.208Z,7.10
2023-03-18T14:12:24.159Z,9.60
2023-03-18T14:15:13.315Z,9.40
2023-03-18T14:17:49.622Z,6.30
2023-03-18T14:20:25.774Z,4.10
2023-03-18T14:23:20.345Z,32.20
2023-03-18T14:25:54.790Z,110.30
2023-03-18T14:28:24.553Z,110.20
2023-03-18T14:31:40.015Z,297.60
2023-03-18T14:34:18.305Z,256.70
2023-03-18T14:36:52.981Z,44.00
2023-03-18T14:39:42.719Z,28.10
2023-03-18T14:42:31.999Z,23.50
2023-03-18T14:45:05.476Z,22.60
2023-03-18T14:47:54.749Z,19.50
2023-03-18T14:50:57.818Z,18.10
2023-03-18T14:53:52.915Z,17.40
2023-03-18T14:56:29.165Z,17.30
2023-03-18T14:58:58.008Z,18.80
2023-03-18T15:01:40.723Z,28.00
2023-03-18T15:06:41.248Z,11.40
2023-03-18T15:09:15.353Z,13.10
2023-03-18T15:11:45.679Z,54.00
2023-03-18T15:14:21.764Z,38.00
2023-03-18T15:16:52.645Z,39.20
2023-03-18T15:19:28.123Z,20.90
2023-03-18T15:22:06.576Z,22.50
2023-03-18T15:24:35.959Z,27.20
2023-03-18T15:27:08.826Z,20.00
2023-03-18T15:30:27.344Z,33.80
2023-03-18T15:33:07.554Z,24.60
2023-03-18T15:35:45.690Z,16.30
2023-03-18T15:38:20.231Z,19.80
2023-03-18T15:40:53.098Z,12.20
2023-03-18T15:43:38.878Z,11.10
2023-03-18T15:46:14.514Z,11.00
2023-03-18T15:48:54.466Z,10.10
2023-03-18T15:51:30.458Z,12.70
2023-03-18T15:54:04.953Z,7.10
2023-03-18T15:56:34.566Z,7.50
2023-03-18T15:59:14.716Z,7.40
2023-03-18T16:01:43.753Z,9.10
2023-03-18T16:04:17.342Z,10.00
2023-03-18T16:06:46.976Z,10.40
2023-03-18T16:09:20.530Z,8.50
2023-03-18T16:11:54.527Z,10.90
2023-03-18T16:14:26.259Z,8.40
2023-03-18T16:16:55.079Z,10.20
2023-03-18T16:19:28.096Z,11.50
2023-03-18T16:21:58.876Z,10.00
2023-03-18T16:24:29.534Z,13.80
2023-03-18T16:26:58.468Z,11.60
2023-03-18T16:29:30.068Z,12.70
2023-03-18T16:32:00.977Z,13.10
2023-03-18T16:34:30.389Z,14.20
2023-03-18T16:36:59.305Z,13.80
2023-03-18T16:39:34.396Z,20.10
2023-03-18T16:42:10.537Z,15.20
2023-03-18T16:44:39.550Z,13.60
2023-03-18T16:47:17.065Z,13.30
2023-03-18T16:49:46.430Z,12.50
2023-03-18T16:52:15.488Z,8.00
2023-03-18T16:54:44.350Z,5.80
2023-03-18T16:57:18.108Z,7.90
2023-03-18T16:59:52.119Z,6.10
2023-03-18T17:02:31.301Z,5.90
2023-03-18T17:05:00.253Z,8.20
2023-03-18T17:07:30.044Z,6.60
2023-03-18T17:09:59.257Z,6.40
2023-03-18T17:12:29.372Z,8.50
2023-03-18T17:14:59.597Z,9.00
2023-03-18T17:17:33.910Z,5.30
2023-03-18T17:20:04.338Z,5.60
2023-03-18T17:22:33.836Z,9.50
2023-03-18T17:25:02.717Z,8.00
2023-03-18T17:27:34.169Z,9.20
2023-03-18T17:30:03.895Z,9.00
2023-03-18T17:32:33.020Z,9.30
2023-03-18T17:35:01.860Z,9.50
2023-03-18T17:37:30.702Z,8.70
2023-03-18T17:40:07.072Z,9.80
2023-03-18T17:45:27.641Z,18.70
2023-03-18T17:48:15.757Z,17.70
2023-03-18T17:50:44.996Z,15.80
2023-03-18T17:53:39.097Z,11.50
2023-03-18T17:56:10.479Z,11.00
2023-03-18T17:58:44.821Z,11.30
2023-03-18T18:01:18.398Z,11.90
2023-03-18T18:03:48.037Z,14.70
2023-03-18T18:06:19.013Z,13.20
2023-03-18T18:08:49.045Z,16.30
2023-03-18T18:11:28.627Z,16.80
2023-03-18T18:16:58.152Z,21.10
2023-03-18T18:19:27.284Z,16.70
2023-03-18T18:21:57.035Z,19.70
2023-03-18T18:24:28.153Z,18.40
2023-03-18T18:26:57.654Z,14.80
2023-03-18T18:29:28.570Z,15.00
2023-03-18T18:31:58.290Z,15.10
2023-03-18T18:34:28.506Z,22.20
2023-03-18T18:36:57.397Z,22.90
2023-03-18T18:39:26.113Z,22.60
2023-03-18T18:42:04.412Z,20.70
2023-03-18T18:44:35.770Z,29.20
2023-03-18T18:47:20.544Z,27.10
2023-03-18T18:49:52.348Z,21.50
2023-03-18T18:52:23.127Z,15.90
2023-03-18T18:54:55.896Z,20.70
2023-03-18T18:57:27.013Z,19.00
2023-03-18T18:59:58.567Z,15.50
2023-03-18T19:02:37.654Z,17.40
2023-03-18T19:05:08.292Z,14.90
2023-03-18T19:07:37.239Z,15.50
2023-03-18T19:10:06.717Z,15.40
2023-03-18T19:12:35.842Z,16.10
2023-03-18T19:15:07.208Z,15.00
2023-03-18T19:17:36.843Z,17.40
2023-03-18T19:20:08.667Z,21.20
2023-03-18T19:22:38.812Z,14.90
2023-03-18T19:25:10.052Z,17.10
2023-03-18T19:27:38.856Z,14.60
2023-03-18T19:30:21.140Z,15.90
2023-03-18T19:32:50.960Z,21.80
2023-03-18T19:35:19.615Z,18.20
2023-03-18T19:37:48.536Z,18.00
2023-03-18T19:40:23.166Z,15.30
2023-03-18T19:42:52.330Z,17.40
2023-03-18T19:45:21.649Z,20.40
2023-03-18T19:47:52.757Z,20.80
2023-03-18T19:50:21.841Z,14.60
2023-03-18T19:52:57.049Z,16.80
2023-03-18T19:55:27.871Z,18.20
2023-03-18T19:57:56.478Z,21.60
2023-03-18T20:00:25.837Z,17.60
2023-03-18T20:02:55.838Z,16.90
2023-03-18T20:05:28.122Z,15.00
2023-03-18T20:07:56.819Z,17.20
2023-03-18T20:10:25.541Z,20.10
2023-03-18T20:13:00.043Z,16.50
2023-03-18T20:15:29.669Z,14.30
2023-03-18T20:18:00.902Z,12.50
2023-03-18T20:20:32.340Z,15.10
2023-03-18T20:23:05.360Z,15.60
2023-03-18T20:25:36.813Z,13.70
2023-03-18T20:28:08.737Z,15.00
2023-03-18T20:30:39.402Z,13.30
2023-03-18T20:33:08.730Z,16.10
2023-03-18T20:35:39.958Z,17.60
2023-03-18T20:38:31.823Z,15.10
2023-03-18T20:41:01.187Z,12.10
2023-03-18T20:43:30.444Z,11.50
2023-03-18T20:46:01.066Z,13.30
2023-03-18T20:48:30.635Z,12.50
2023-03-18T20:51:00.003Z,11.30
2023-03-18T20:53:29.157Z,12.00
2023-03-18T20:55:58.621Z,10.70
2023-03-18T20:58:28.366Z,12.00
2023-03-18T21:00:57.800Z,10.70
2023-03-18T21:03:29.614Z,11.20
2023-03-18T21:05:59.609Z,12.20
2023-03-18T21:08:28.565Z,10.90
2023-03-18T21:11:04.573Z,13.60
2023-03-18T21:13:39.384Z,15.00
2023-03-18T21:16:13.136Z,13.40
2023-03-18T21:18:48.608Z,12.40
2023-03-18T21:21:31.630Z,13.50
2023-03-18T21:24:00.422Z,15.60
2023-03-18T21:26:29.414Z,13.20
2023-03-18T21:28:58.534Z,13.00
2023-03-18T21:31:31.761Z,9.00
2023-03-18T21:34:01.336Z,9.00
2023-03-18T21:36:31.313Z,8.00
2023-03-18T21:38:59.914Z,8.20
2023-03-18T21:41:29.431Z,8.90
2023-03-18T21:43:58.239Z,7.10
2023-03-18T21:46:28.917Z,7.50
2023-03-18T21:48:57.960Z,11.40
2023-03-18T21:51:38.749Z,10.50
2023-03-18T21:54:18.227Z,9.90
2023-03-18T21:56:48.468Z,13.30
2023-03-18T21:59:17.651Z,13.40
2023-03-18T22:01:46.884Z,11.70
2023-03-18T22:04:15.802Z,13.80
2023-03-18T22:06:44.613Z,13.50
2023-03-18T22:09:15.104Z,10.50
2023-03-18T22:11:43.875Z,19.50
2023-03-18T22:14:13.671Z,13.40
2023-03-18T22:16:42.923Z,13.80
2023-03-18T22:19:11.445Z,11.50
2023-03-18T22:21:40.857Z,13.00
2023-03-18T22:24:13.959Z,12.10
2023-03-18T22:26:42.483Z,12.40
2023-03-18T22:29:12.923Z,13.40
2023-03-18T22:31:44.025Z,12.20
2023-03-18T22:34:22.074Z,12.90
2023-03-18T22:36:50.964Z,14.40
2023-03-18T22:39:27.809Z,15.10
2023-03-18T22:41:56.446Z,18.20
2023-03-18T22:44:25.060Z,19.50
2023-03-18T22:46:53.788Z,18.40
2023-03-18T22:49:26.069Z,13.90
2023-03-18T22:51:57.540Z,16.90
2023-03-18T22:54:27.734Z,17.50
2023-03-18T22:56:58.779Z,25.80
2023-03-18T22:59:27.481Z,71.00
2023-03-18T23:01:56.079Z,66.50
2023-03-18T23:04:25.971Z,35.30
2023-03-18T23:06:59.372Z,26.30
2023-03-18T23:09:28.589Z,20.30
2023-03-18T23:11:57.279Z,16.50
2023-03-18T23:14:26.077Z,13.40
2023-03-18T23:16:54.677Z,12.80
2023-03-18T23:19:26.325Z,12.70
2023-03-18T23:22:02.030Z,12.30
2023-03-18T23:24:33.905Z,16.00
2023-03-18T23:27:09.401Z,18.80
2023-03-18T23:29:38.078Z,13.10
2023-03-18T23:32:07.398Z,12.10
2023-03-18T23:34:39.095Z,11.30
2023-03-18T23:37:07.839Z,9.00
2023-03-18T23:39:39.896Z,6.10
2023-03-18T23:42:16.756Z,7.30
2023-03-18T23:44:46.031Z,9.30
2023-03-18T23:47:14.816Z,11.10
2023-03-18T23:49:45.753Z,10.30
2023-03-18T23:52:14.671Z,9.00
2023-03-18T23:54:43.662Z,10.00
2023-03-18T23:57:14.002Z,10.50
2023-03-18T23:59:43.212Z,8.60
